Time;durP1;ratioP1;P1;durP2;ratioP2;P2;SDS_P1;SDS_P2;PMS_P1;PMS_P2;Temp;Humidity;BMP_temperature;BMP_pressure;BME280_temperature;BME280_humidity;BME280_pressure;Samples;Min_cycle;Max_cycle;Signal;HPM_P1;HPM_P2
2021/12/18 00:02:09;;;;;;;;;;;;;;;21.66;44.86;103718.09;7284041;19;152049;-51
2021/12/18 00:04:36;;;;;;;;;;;;;;;21.64;45.28;103715.50;7279864;19;153151;-51
2021/12/18 00:07:03;;;;;;;;;;;;;;;21.63;45.10;103708.16;7283301;19;153257;-50
2021/12/18 00:09:32;;;;;;;;;;;;;;;21.60;45.30;103710.63;7282753;19;151913;-51
2021/12/18 00:12:00;;;;;;;;;;;;;;;21.59;45.34;103703.28;7284505;19;152580;-50
2021/12/18 00:14:27;;;;;;;;;;;;;;;21.55;45.38;103704.88;7279434;19;151931;-49
2021/12/18 00:16:54;;;;;;;;;;;;;;;21.50;45.51;103700.00;7281340;19;153165;-50
2021/12/18 00:19:25;;;;;;;;;;;;;;;21.46;45.64;103700.75;7288346;19;153299;-50
2021/12/18 00:21:53;;;;;;;;;;;;;;;21.43;45.66;103699.28;7284138;19;152243;-50
2021/12/18 00:24:20;;;;;;;;;;;;;;;21.38;45.38;103699.19;7282181;19;153105;-50
2021/12/18 00:26:47;;;;;;;;;;;;;;;21.35;45.67;103694.03;7282342;19;153782;-50
2021/12/18 00:29:14;;;;;;;;;;;;;;;21.32;45.96;103685.25;7285047;19;151789;-50
2021/12/18 00:31:41;;;;;;;;;;;;;;;21.27;45.96;103686.84;7283782;19;152447;-51
2021/12/18 00:34:08;;;;;;;;;;;;;;;21.24;46.03;103687.34;7279710;19;153661;-50
2021/12/18 00:36:35;;;;;;;;;;;;;;;21.22;45.92;103685.84;7282333;19;151771;-50
2021/12/18 00:39:02;;;;;;;;;;;;;;;21.19;46.14;103691.97;7282249;19;153427;-51
2021/12/18 00:46:29;;;;;;;;;;;;;;;21.11;46.12;103696.00;7279266;19;153294;-50
2021/12/18 00:48:56;;;;;;;;;;;;;;;21.09;45.99;103692.56;7282963;19;152200;-50
2021/12/18 00:51:23;;;;;;;;;;;;;;;21.05;46.06;103687.69;7282895;19;153135;-50
2021/12/18 00:53:51;;;;;;;;;;;;;;;21.00;46.35;103682.78;7281277;19;153291;-50
2021/12/18 00:56:18;;;;;;;;;;;;;;;20.98;46.21;103689.78;7281164;19;152087;-50
2021/12/18 00:58:46;;;;;;;;;;;;;;;20.95;46.25;103681.81;7280393;19;152864;-50
2021/12/18 01:01:13;;;;;;;;;;;;;;;20.92;46.42;103669.13;7278337;19;153210;-50
2021/12/18 01:03:42;;;;;;;;;;;;;;;20.91;46.57;103669.34;7288050;19;152290;-50
2021/12/18 01:06:09;;;;;;;;;;;;;;;20.86;46.48;103668.13;7280780;19;153008;-50
2021/12/18 01:08:36;;;;;;;;;;;;;;;20.83;46.23;103668.63;7282824;19;151941;-49
2021/12/18 01:13:36;;;;;;;;;;;;;;;20.79;46.31;103663.75;7280371;19;154041;-50
2021/12/18 01:16:12;;;;;;;;;;;;;;;20.80;46.35;103680.34;7278926;19;151898;-50
2021/12/18 01:23:39;;;;;;;;;;;;;;;20.75;46.29;103683.06;7289531;19;152412;-50
2021/12/18 01:26:06;;;;;;;;;;;;;;;20.71;46.13;103679.03;7278269;19;153866;-50
2021/12/18 01:28:33;;;;;;;;;;;;;;;20.70;46.21;103688.53;7280564;19;152197;-50
2021/12/18 01:31:00;;;;;;;;;;;;;;;20.69;46.51;103686.81;7282236;19;152671;-50
2021/12/18 01:33:27;;;;;;;;;;;;;;;20.67;46.08;103688.19;7280663;19;153641;-50
2021/12/18 01:35:54;;;;;;;;;;;;;;;20.65;46.30;103685.59;7279256;19;152041;-50
2021/12/18 01:38:22;;;;;;;;;;;;;;;20.63;46.45;103682.16;7280128;19;152543;-50
2021/12/18 01:40:50;;;;;;;;;;;;;;;20.59;46.33;103688.50;7278949;19;154458;-50
2021/12/18 01:53:18;;;;;;;;;;;;;;;20.50;46.79;103688.03;7280047;19;153428;-50
2021/12/18 01:55:47;;;;;;;;;;;;;;;20.49;46.78;103691.09;7277728;19;152299;-49
2021/12/18 01:58:19;;;;;;;;;;;;;;;20.45;46.90;103685.06;7280464;19;152119;-50
2021/12/18 02:00:46;;;;;;;;;;;;;;;20.44;46.55;103696.56;7275848;19;153088;-49
2021/12/18 02:03:13;;;;;;;;;;;;;;;20.39;46.98;103695.34;7277881;19;152311;-48
2021/12/18 02:05:40;;;;;;;;;;;;;;;20.40;46.87;103693.34;7278487;19;153460;-50
2021/12/18 02:08:07;;;;;;;;;;;;;;;20.39;46.50;103691.69;7284339;19;152726;-50
2021/12/18 02:10:46;;;;;;;;;;;;;;;20.36;46.78;103700.56;7277594;19;153950;-50
2021/12/18 02:21:07;;;;;;;;;;;;;;;20.29;46.72;103682.94;7279943;19;153178;-50
2021/12/18 02:23:36;;;;;;;;;;;;;;;20.25;47.01;103679.75;7279418;19;152782;-50
2021/12/18 02:26:04;;;;;;;;;;;;;;;20.23;47.19;103690.38;7281374;19;152135;-50
2021/12/18 02:28:32;;;;;;;;;;;;;;;20.24;47.00;103682.81;7283842;19;153463;-50
2021/12/18 02:30:59;;;;;;;;;;;;;;;20.24;47.03;103682.81;7297736;19;151840;-50
2021/12/18 02:33:27;;;;;;;;;;;;;;;20.22;46.73;103682.16;7289252;19;153022;-50
2021/12/18 02:35:56;;;;;;;;;;;;;;;20.20;46.94;103688.06;7284842;19;152541;-50
2021/12/18 02:38:29;;;;;;;;;;;;;;;20.20;46.70;103684.38;7288629;19;153933;-50
2021/12/18 02:43:29;;;;;;;;;;;;;;;20.17;46.74;103682.88;7286457;19;152175;-50
2021/12/18 02:48:30;;;;;;;;;;;;;;;20.12;46.74;103681.91;7285921;19;153859;-50
2021/12/18 02:50:58;;;;;;;;;;;;;;;20.11;46.96;103680.19;7285876;19;151754;-50
2021/12/18 02:53:25;;;;;;;;;;;;;;;20.12;47.17;103676.31;7294353;19;154012;-50
2021/12/18 02:55:55;;;;;;;;;;;;;;;20.10;47.09;103684.97;7284110;19;151822;-50
2021/12/18 02:58:27;;;;;;;;;;;;;;;20.07;47.17;103671.41;7286012;19;152544;-49
2021/12/18 03:00:59;;;;;;;;;;;;;;;20.05;47.20;103670.78;7283389;19;152795;-50
2021/12/18 03:03:30;;;;;;;;;;;;;;;20.05;46.78;103672.72;7287196;19;151749;-49
2021/12/18 03:08:45;;;;;;;;;;;;;;;20.02;47.25;103670.41;7285338;19;153302;-50
2021/12/18 03:23:46;;;;;;;;;;;;;;;19.91;47.03;103675.72;7284696;19;151938;-50
2021/12/18 03:26:14;;;;;;;;;;;;;;;19.89;47.46;103672.31;7281657;19;152217;-50
2021/12/18 03:28:41;;;;;;;;;;;;;;;19.89;47.19;103675.13;7283727;19;153780;-49
2021/12/18 03:31:08;;;;;;;;;;;;;;;19.87;47.35;103671.69;7282931;19;151939;-49
2021/12/18 03:33:35;;;;;;;;;;;;;;;19.87;47.40;103674.50;7283394;19;153004;-49
2021/12/18 03:36:02;;;;;;;;;;;;;;;19.84;47.47;103677.78;7289669;19;152979;-50
2021/12/18 03:38:29;;;;;;;;;;;;;;;19.84;47.16;103682.53;7282903;19;152731;-50
2021/12/18 03:40:56;;;;;;;;;;;;;;;19.82;47.10;103681.91;7281498;19;153822;-50
2021/12/18 03:43:23;;;;;;;;;;;;;;;19.81;47.22;103688.59;7284811;19;152186;-49
2021/12/18 03:45:50;;;;;;;;;;;;;;;19.81;47.35;103677.38;7285002;19;152732;-49
2021/12/18 03:48:17;;;;;;;;;;;;;;;19.79;47.56;103686.06;7284445;19;153662;-49
2021/12/18 03:50:46;;;;;;;;;;;;;;;19.77;47.16;103679.81;7283955;19;152124;-49
2021/12/18 03:53:13;;;;;;;;;;;;;;;19.78;47.35;103678.72;7282147;19;153346;-50
2021/12/18 03:55:40;;;;;;;;;;;;;;;19.77;47.37;103684.56;7280175;19;154436;-49
2021/12/18 03:58:07;;;;;;;;;;;;;;;19.76;47.30;103675.28;7288633;19;151868;-49
2021/12/18 04:00:35;;;;;;;;;;;;;;;19.72;47.19;103674.06;7261515;19;155662;-49
2021/12/18 04:03:02;;;;;;;;;;;;;;;19.71;47.17;103668.69;7278415;19;152857;-49
2021/12/18 04:05:29;;;;;;;;;;;;;;;19.71;47.54;103672.38;7278273;19;153374;-49
2021/12/18 04:08:08;;;;;;;;;;;;;;;19.67;47.30;103665.50;7279408;19;153261;-49
2021/12/18 04:10:37;;;;;;;;;;;;;;;19.67;47.62;103668.28;7283083;19;152471;-50
2021/12/18 04:13:05;;;;;;;;;;;;;;;19.65;47.38;103658.41;7281451;19;153826;-50
2021/12/18 04:15:32;;;;;;;;;;;;;;;19.65;47.68;103659.28;7283120;19;153921;-49
2021/12/18 04:17:59;;;;;;;;;;;;;;;19.61;47.56;103658.03;7284839;19;153995;-52
2021/12/18 04:20:26;;;;;;;;;;;;;;;19.62;47.72;103656.97;7289887;19;152003;-50
2021/12/18 04:22:58;;;;;;;;;;;;;;;19.60;47.70;103653.50;7280549;19;152194;-50
2021/12/18 04:25:25;;;;;;;;;;;;;;;19.59;47.65;103663.00;7282221;19;153129;-50
2021/12/18 04:27:52;;;;;;;;;;;;;;;19.59;47.65;103663.00;7279396;19;152726;-50
2021/12/18 04:30:18;;;;;;;;;;;;;;;19.60;47.51;103666.69;7280130;19;151979;-50
2021/12/18 04:32:45;;;;;;;;;;;;;;;19.57;47.68;103664.34;7282927;19;153122;-50
2021/12/18 04:35:12;;;;;;;;;;;;;;;19.55;47.68;103667.38;7280996;19;154344;-50
2021/12/18 04:37:39;;;;;;;;;;;;;;;19.56;47.53;103671.91;7282295;19;151937;-50
2021/12/18 04:40:07;;;;;;;;;;;;;;;19.53;47.46;103662.00;7282505;19;151892;-50
2021/12/18 04:42:33;;;;;;;;;;;;;;;19.50;47.51;103673.69;7287076;19;153635;-51
2021/12/18 04:45:00;;;;;;;;;;;;;;;19.51;47.76;103675.41;7282253;19;152080;-49
2021/12/18 04:47:27;;;;;;;;;;;;;;;19.49;47.63;103679.53;7281953;19;153749;-50
2021/12/18 04:49:55;;;;;;;;;;;;;;;19.49;47.74;103685.13;7282160;19;151951;-50
2021/12/18 04:52:23;;;;;;;;;;;;;;;19.50;47.56;103684.06;7280311;19;153268;-51
2021/12/18 04:54:53;;;;;;;;;;;;;;;19.47;47.92;103676.13;7281425;19;153258;-55
2021/12/18 04:57:20;;;;;;;;;;;;;;;19.45;47.68;103686.69;7281245;19;152100;-50
2021/12/18 04:59:47;;;;;;;;;;;;;;;19.44;47.78;103685.03;7281860;19;153040;-50
2021/12/18 05:02:18;;;;;;;;;;;;;;;19.41;47.62;103691.03;7251785;19;155167;-50
2021/12/18 05:04:45;;;;;;;;;;;;;;;19.40;47.78;103686.50;7286775;19;152119;-50
2021/12/18 05:07:12;;;;;;;;;;;;;;;19.40;47.61;103678.97;7277926;19;153894;-50
2021/12/18 05:09:39;;;;;;;;;;;;;;;19.39;47.96;103690.44;7277434;19;156307;-50
2021/12/18 05:12:07;;;;;;;;;;;;;;;19.38;47.94;103685.91;7279124;19;151819;-50
2021/12/18 05:14:34;;;;;;;;;;;;;;;19.37;47.87;103684.19;7279816;19;153637;-50
2021/12/18 05:17:01;;;;;;;;;;;;;;;19.34;47.76;103679.91;7281673;19;151607;-51
2021/12/18 05:19:27;;;;;;;;;;;;;;;19.37;47.59;103678.59;7279569;19;152553;-50
2021/12/18 05:21:54;;;;;;;;;;;;;;;19.34;47.96;103679.91;7279804;19;153570;-51
2021/12/18 05:24:21;;;;;;;;;;;;;;;19.34;47.98;103667.84;7279109;19;153143;-51
2021/12/18 05:26:48;;;;;;;;;;;;;;;19.33;47.89;103678.19;7287237;19;153211;-50
2021/12/18 05:29:15;;;;;;;;;;;;;;;19.30;47.75;103681.47;7280392;19;152136;-50
2021/12/18 05:31:43;;;;;;;;;;;;;;;19.32;47.83;103678.41;7280639;19;152697;-50
2021/12/18 05:34:10;;;;;;;;;;;;;;;19.28;48.10;103671.56;7279615;19;152715;-50
2021/12/18 05:39:09;;;;;;;;;;;;;;;19.28;47.65;103672.44;7281690;19;152276;-49
2021/12/18 05:41:37;;;;;;;;;;;;;;;19.25;47.75;103684.13;7277660;19;154600;-50
2021/12/18 05:44:04;;;;;;;;;;;;;;;19.26;48.17;103676.56;7279016;19;152724;-49
2021/12/18 05:46:31;;;;;;;;;;;;;;;19.23;47.83;103660.22;7287487;19;153784;-50
2021/12/18 05:48:58;;;;;;;;;;;;;;;19.22;47.83;103664.94;7278871;19;151978;-50
2021/12/18 05:51:25;;;;;;;;;;;;;;;19.20;47.78;103667.16;7280938;19;152150;-50
2021/12/18 05:53:52;;;;;;;;;;;;;;;19.18;47.85;103682.47;7279240;19;153657;-51
2021/12/18 05:56:20;;;;;;;;;;;;;;;19.18;47.85;103672.13;7280494;19;151780;-50
2021/12/18 05:58:47;;;;;;;;;;;;;;;19.19;47.88;103676.63;7278696;19;152385;-50
2021/12/18 06:01:14;;;;;;;;;;;;;;;19.17;47.83;103680.78;7254665;19;153778;-50
2021/12/18 06:03:41;;;;;;;;;;;;;;;19.16;47.91;103679.06;7284004;19;152148;-50
2021/12/18 06:06:08;;;;;;;;;;;;;;;19.14;47.96;103681.22;7284071;19;152814;-50
2021/12/18 06:08:36;;;;;;;;;;;;;;;19.15;48.29;103685.75;7288960;19;152798;-50
2021/12/18 06:11:08;;;;;;;;;;;;;;;19.14;48.08;103684.88;7282886;19;154799;-50
2021/12/18 06:13:35;;;;;;;;;;;;;;;19.12;48.33;103684.28;7285422;19;153298;-50
2021/12/18 06:16:05;;;;;;;;;;;;;;;19.10;48.00;103690.09;7285997;19;152424;-50
2021/12/18 06:18:33;;;;;;;;;;;;;;;19.08;48.38;103692.25;7286739;19;152604;-50
2021/12/18 06:21:00;;;;;;;;;;;;;;;19.09;48.35;103690.31;7282668;19;154427;-50
2021/12/18 06:23:27;;;;;;;;;;;;;;;19.07;48.03;103693.38;7283439;19;152640;-50
2021/12/18 06:25:54;;;;;;;;;;;;;;;19.08;48.10;103685.81;7286351;19;153302;-50
2021/12/18 06:28:21;;;;;;;;;;;;;;;19.06;48.36;103686.06;7284467;19;153977;-49
2021/12/18 06:30:49;;;;;;;;;;;;;;;19.07;47.90;103698.13;7290205;19;152363;-50
2021/12/18 06:33:16;;;;;;;;;;;;;;;19.05;48.40;103689.06;7285041;19;153934;-50
2021/12/18 06:35:43;;;;;;;;;;;;;;;19.03;48.10;103692.09;7284004;19;152149;-50
2021/12/18 06:38:10;;;;;;;;;;;;;;;19.00;48.41;103686.97;7286090;19;152925;-50
2021/12/18 06:40:37;;;;;;;;;;;;;;;19.01;48.38;103685.03;7284651;19;154330;-50
2021/12/18 06:43:04;;;;;;;;;;;;;;;19.00;48.41;103691.72;7282760;19;151710;-50
2021/12/18 06:45:31;;;;;;;;;;;;;;;18.99;48.48;103692.78;7283901;19;152610;-50
2021/12/18 06:47:58;;;;;;;;;;;;;;;19.02;48.20;103689.56;7284548;19;153255;-49
2021/12/18 06:50:25;;;;;;;;;;;;;;;18.97;48.50;103683.78;7284308;19;152168;-49
2021/12/18 06:52:52;;;;;;;;;;;;;;;18.95;48.22;103688.75;7292020;19;152861;-50
2021/12/18 06:55:19;;;;;;;;;;;;;;;18.95;48.50;103700.81;7283421;19;151948;-50
2021/12/18 06:57:46;;;;;;;;;;;;;;;18.93;48.57;103697.41;7283972;19;152587;-50
2021/12/18 07:00:14;;;;;;;;;;;;;;;18.95;48.41;103697.16;7284488;19;153437;-50
2021/12/18 07:02:42;;;;;;;;;;;;;;;18.91;48.59;103699.56;7284709;19;151992;-50
2021/12/18 07:05:09;;;;;;;;;;;;;;;18.93;48.52;103693.75;7280959;19;152563;-50
2021/12/18 07:07:36;;;;;;;;;;;;;;;18.91;48.22;103690.28;7281780;19;153955;-50
2021/12/18 07:10:05;;;;;;;;;;;;;;;18.90;48.23;103683.84;7285245;19;152118;-49
2021/12/18 07:12:32;;;;;;;;;;;;;;;18.89;48.43;103684.09;7286119;19;152595;-50
2021/12/18 07:14:58;;;;;;;;;;;;;;;18.88;48.27;103687.97;7288560;19;154034;-50
2021/12/18 07:17:25;;;;;;;;;;;;;;;18.88;48.16;103682.38;7285508;19;153044;-49
2021/12/18 07:19:52;;;;;;;;;;;;;;;18.87;48.66;103698.31;7283257;19;154093;-50
2021/12/18 07:22:19;;;;;;;;;;;;;;;18.85;48.26;103688.44;7285011;19;151814;-50
2021/12/18 07:24:46;;;;;;;;;;;;;;;18.86;48.44;103684.53;7284638;19;152580;-50
2021/12/18 07:27:13;;;;;;;;;;;;;;;18.84;48.72;103686.72;7281464;19;152630;-50
2021/12/18 07:29:40;;;;;;;;;;;;;;;18.84;48.35;103690.38;7284243;19;152855;-49
2021/12/18 07:32:07;;;;;;;;;;;;;;;18.83;48.61;103687.78;7282643;19;152278;-49
2021/12/18 07:34:51;;;;;;;;;;;;;;;18.82;48.67;103686.06;7283000;19;154180;-50
2021/12/18 07:37:18;;;;;;;;;;;;;;;18.81;48.52;103687.16;7292886;19;152607;-49
2021/12/18 07:39:45;;;;;;;;;;;;;;;18.80;48.55;103691.94;7281308;19;153817;-50
2021/12/18 07:42:12;;;;;;;;;;;;;;;18.79;48.57;103684.59;7284337;19;151769;-50
2021/12/18 07:44:40;;;;;;;;;;;;;;;18.79;48.54;103683.75;7283879;19;153099;-50
2021/12/18 07:47:07;;;;;;;;;;;;;;;18.79;48.69;103689.34;7282934;19;153369;-50
2021/12/18 07:49:37;;;;;;;;;;;;;;;18.77;48.77;103689.56;7284821;19;151596;-50
2021/12/18 07:52:04;;;;;;;;;;;;;;;18.78;48.71;103698.84;7287045;19;153285;-49
2021/12/18 07:54:32;;;;;;;;;;;;;;;18.75;48.58;103705.75;7283466;19;153342;-49
2021/12/18 07:56:58;;;;;;;;;;;;;;;18.73;48.66;103698.66;7291341;19;152395;-49
2021/12/18 07:59:25;;;;;;;;;;;;;;;18.74;48.36;103701.25;7282481;19;153254;-50
2021/12/18 08:01:52;;;;;;;;;;;;;;;18.72;48.74;103697.78;7284622;19;151541;-50
2021/12/18 08:04:19;;;;;;;;;;;;;;;18.73;48.58;103698.66;7277739;19;153328;-50
2021/12/18 08:06:46;;;;;;;;;;;;;;;18.73;48.80;103699.50;7282645;19;153386;-50
2021/12/18 08:09:13;;;;;;;;;;;;;;;18.72;48.50;103700.59;7284148;19;151800;-50
2021/12/18 08:11:40;;;;;;;;;;;;;;;18.74;48.85;103709.66;7284226;19;153425;-50
2021/12/18 08:14:07;;;;;;;;;;;;;;;18.75;48.41;103711.38;7282393;19;154433;-50
2021/12/18 08:16:34;;;;;;;;;;;;;;;18.77;48.48;103708.31;7284000;19;152261;-50
2021/12/18 08:19:01;;;;;;;;;;;;;;;18.76;48.90;103712.22;7288413;19;153511;-50
2021/12/18 08:21:28;;;;;;;;;;;;;;;18.77;48.83;103703.56;7283602;19;152981;-50
2021/12/18 08:23:54;;;;;;;;;;;;;;;18.78;48.86;103704.44;7281520;19;152230;-50
2021/12/18 08:26:22;;;;;;;;;;;;;;;18.79;48.95;103706.16;7279276;19;154598;-50
2021/12/18 08:28:49;;;;;;;;;;;;;;;18.78;48.80;103712.84;7283296;19;152014;-49
2021/12/18 08:31:16;;;;;;;;;;;;;;;18.79;48.87;103721.03;7283123;19;152127;-50
2021/12/18 08:33:43;;;;;;;;;;;;;;;18.79;48.83;103714.56;7280854;19;154388;-50
2021/12/18 08:36:10;;;;;;;;;;;;;;;18.79;48.49;103711.75;7280690;19;151830;-50
2021/12/18 08:38:37;;;;;;;;;;;;;;;18.78;48.62;103715.63;7283810;19;153184;-50
2021/12/18 08:41:04;;;;;;;;;;;;;;;18.79;48.55;103721.03;7289823;19;153283;-50
2021/12/18 08:43:31;;;;;;;;;;;;;;;18.78;48.56;103733.31;7280724;19;151689;-50
2021/12/18 08:45:58;;;;;;;;;;;;;;;18.78;48.48;103736.09;7281541;19;154074;-49
2021/12/18 08:48:25;;;;;;;;;;;;;;;18.79;48.67;103735.03;7283492;19;152015;-50
2021/12/18 08:50:52;;;;;;;;;;;;;;;18.78;48.76;103732.44;7283400;19;152924;-50
2021/12/18 08:53:18;;;;;;;;;;;;;;;18.78;48.50;103738.91;7282231;19;152544;-50
2021/12/18 08:55:46;;;;;;;;;;;;;;;18.79;48.48;103736.97;7282461;19;152147;-50
2021/12/18 08:58:13;;;;;;;;;;;;;;;18.78;48.71;103738.91;7283311;19;152605;-50
2021/12/18 09:00:40;;;;;;;;;;;;;;;18.76;48.57;103737.44;7281329;19;153951;-50
2021/12/18 09:03:07;;;;;;;;;;;;;;;18.78;48.80;103738.03;7288338;19;152200;-49
2021/12/18 09:05:34;;;;;;;;;;;;;;;18.75;48.75;103735.72;7275797;19;153377;-49
2021/12/18 09:08:01;;;;;;;;;;;;;;;18.75;48.42;103732.91;7281065;19;152257;-49
2021/12/18 09:10:28;;;;;;;;;;;;;;;18.74;48.69;103728.38;7282708;19;152724;-49
2021/12/18 09:12:55;;;;;;;;;;;;;;;18.75;48.54;103732.91;7281276;19;154875;-49
2021/12/18 09:15:23;;;;;;;;;;;;;;;18.74;48.53;103732.03;7283776;19;152520;-49
2021/12/18 09:17:50;;;;;;;;;;;;;;;18.73;48.70;103732.25;7282655;19;153054;-49
2021/12/18 09:20:17;;;;;;;;;;;;;;;18.72;48.55;103730.53;7280545;19;154097;-49
2021/12/18 09:22:44;;;;;;;;;;;;;;;18.71;48.85;103732.50;7280816;19;152205;-49
2021/12/18 09:25:11;;;;;;;;;;;;;;;18.70;48.75;103728.00;7287980;19;152703;-50
2021/12/18 09:27:38;;;;;;;;;;;;;;;18.71;48.58;103726.91;7280447;19;151544;-49
2021/12/18 09:30:07;;;;;;;;;;;;;;;18.70;48.60;103716.78;7281466;19;153567;-50
2021/12/18 09:32:34;;;;;;;;;;;;;;;18.68;48.72;103727.34;7278824;19;153935;-50
2021/12/18 09:35:00;;;;;;;;;;;;;;;18.67;48.63;103726.50;7281454;19;151991;-49
2021/12/18 09:37:28;;;;;;;;;;;;;;;18.67;48.72;103725.63;7277064;19;152820;-51
2021/12/18 09:39:54;;;;;;;;;;;;;;;18.67;48.77;103726.50;7280942;19;152452;-50
2021/12/18 09:42:21;;;;;;;;;;;;;;;18.66;48.86;103729.53;7280680;19;152260;-50
2021/12/18 09:44:50;;;;;;;;;;;;;;;18.66;48.75;103732.34;7278499;19;152863;-49
2021/12/18 09:47:18;;;;;;;;;;;;;;;18.63;48.79;103738.38;7286160;19;151781;-50
2021/12/18 09:49:46;;;;;;;;;;;;;;;18.63;48.50;103736.44;7279688;19;152775;-50
2021/12/18 09:52:13;;;;;;;;;;;;;;;18.63;48.80;103736.44;7279192;19;153191;-50
2021/12/18 09:54:40;;;;;;;;;;;;;;;18.64;48.50;103737.28;7279491;19;152091;-50
2021/12/18 09:57:07;;;;;;;;;;;;;;;18.63;48.64;103729.97;7279458;19;152738;-49
2021/12/18 09:59:35;;;;;;;;;;;;;;;18.60;48.65;103731.31;7276979;19;152219;-50
2021/12/18 10:02:03;;;;;;;;;;;;;;;18.61;48.66;103733.03;7278869;19;152217;-50
2021/12/18 10:04:31;;;;;;;;;;;;;;;18.60;48.93;103739.69;7277651;19;153420;-50
2021/12/18 10:06:59;;;;;;;;;;;;;;;18.58;48.55;103738.19;7285129;19;153515;-50
2021/12/18 10:09:27;;;;;;;;;;;;;;;18.58;48.96;103741.00;7278249;19;153145;-50
2021/12/18 10:11:56;;;;;;;;;;;;;;;18.58;49.00;103743.78;7279173;19;153951;-50
2021/12/18 10:14:26;;;;;;;;;;;;;;;18.57;48.61;103742.97;7277966;19;151747;-50
2021/12/18 10:16:53;;;;;;;;;;;;;;;18.57;48.61;103736.50;7280899;19;152729;-50
2021/12/18 10:19:23;;;;;;;;;;;;;;;18.57;49.01;103744.91;7277580;19;152634;-49
2021/12/18 10:21:53;;;;;;;;;;;;;;;18.54;48.61;103739.72;7278391;19;152406;-50
2021/12/18 10:24:20;;;;;;;;;;;;;;;18.56;48.50;103743.19;7278243;19;152674;-50
2021/12/18 10:26:47;;;;;;;;;;;;;;;18.53;48.75;103744.47;7276507;19;153920;-50
2021/12/18 10:29:17;;;;;;;;;;;;;;;18.53;48.80;103740.84;7286490;19;152256;-50
2021/12/18 10:31:45;;;;;;;;;;;;;;;18.53;48.83;103735.25;7279273;19;154642;-50
2021/12/18 10:34:14;;;;;;;;;;;;;;;18.52;48.90;103739.09;7280153;19;151705;-50
2021/12/18 10:36:40;;;;;;;;;;;;;;;18.53;48.72;103743.66;7279175;19;151677;-50
2021/12/18 10:39:07;;;;;;;;;;;;;;;18.50;49.05;103735.66;7278261;19;153256;-51
2021/12/18 10:41:35;;;;;;;;;;;;;;;18.50;48.81;103730.91;7277010;19;151649;-49
2021/12/18 10:44:06;;;;;;;;;;;;;;;18.50;49.05;103742.09;7275858;19;151942;-49
2021/12/18 10:46:35;;;;;;;;;;;;;;;18.47;49.03;103728.56;7278236;19;153196;-50
2021/12/18 10:49:04;;;;;;;;;;;;;;;18.47;48.75;103736.09;7283714;19;152048;-50
2021/12/18 10:51:32;;;;;;;;;;;;;;;18.46;48.78;103737.19;7293326;19;153365;-50
2021/12/18 10:54:02;;;;;;;;;;;;;;;18.46;49.05;103731.59;7283040;19;152280;-49
2021/12/18 10:56:32;;;;;;;;;;;;;;;18.47;49.01;103733.31;7285677;19;152051;-49
2021/12/18 10:58:59;;;;;;;;;;;;;;;18.46;48.64;103728.78;7284610;19;153372;-50
2021/12/18 11:01:26;;;;;;;;;;;;;;;18.46;48.74;103726.84;7283304;19;151779;-50
2021/12/18 11:03:53;;;;;;;;;;;;;;;18.44;49.19;103730.97;7284480;19;153286;-50
2021/12/18 11:06:24;;;;;;;;;;;;;;;18.45;49.02;103727.94;7284775;19;152192;-50
2021/12/18 11:08:52;;;;;;;;;;;;;;;18.44;48.95;103726.19;7286143;19;151850;-50
2021/12/18 11:13:55;;;;;;;;;;;;;;;18.43;48.89;103724.50;7292301;19;153994;-50
2021/12/18 11:16:25;;;;;;;;;;;;;;;18.40;48.90;103721.28;7284552;19;152601;-49
2021/12/18 11:18:54;;;;;;;;;;;;;;;18.41;48.78;103720.22;7283113;19;153398;-49
2021/12/18 11:21:23;;;;;;;;;;;;;;;18.40;48.79;103715.69;7285181;19;152046;-50
2021/12/18 11:24:04;;;;;;;;;;;;;;;18.39;48.86;103712.06;7285445;19;153266;-50
2021/12/18 11:26:51;;;;;;;;;;;;;;;18.38;48.95;103715.94;7285562;19;152772;-49
2021/12/18 11:29:21;;;;;;;;;;;;;;;18.36;48.89;103714.44;7285120;19;151840;-49
2021/12/18 11:31:48;;;;;;;;;;;;;;;18.38;48.74;103710.34;7285298;19;152422;-50
2021/12/18 11:34:16;;;;;;;;;;;;;;;18.38;49.22;103709.47;7283665;19;153481;-49
2021/12/18 11:36:44;;;;;;;;;;;;;;;18.37;48.96;103708.63;7290277;19;152201;-50
2021/12/18 11:39:11;;;;;;;;;;;;;;;18.37;49.11;103704.94;7284100;19;153249;-50
2021/12/18 11:41:39;;;;;;;;;;;;;;;18.36;48.74;103708.81;7283816;19;152181;-51
2021/12/18 11:44:09;;;;;;;;;;;;;;;18.35;48.87;103707.97;7282701;19;152667;-51
2021/12/18 11:46:37;;;;;;;;;;;;;;;18.35;48.97;103707.97;7283979;19;153469;-51
2021/12/18 11:49:06;;;;;;;;;;;;;;;18.35;48.99;103698.75;7282515;19;151931;-51
2021/12/18 11:51:33;;;;;;;;;;;;;;;18.33;48.92;103700.91;7285487;19;152659;-50
2021/12/18 11:54:03;;;;;;;;;;;;;;;18.35;48.77;103704.34;7280877;19;153374;-50
2021/12/18 11:56:33;;;;;;;;;;;;;;;18.33;48.81;103700.91;7290554;19;152401;-50
2021/12/18 11:59:00;;;;;;;;;;;;;;;18.32;49.20;103704.78;7284074;19;153377;-50
2021/12/18 12:01:29;;;;;;;;;;;;;;;18.31;48.91;103705.84;7281554;19;152061;-50
2021/12/18 12:03:57;;;;;;;;;;;;;;;18.31;48.89;103697.44;7284000;19;152676;-51
2021/12/18 12:06:29;;;;;;;;;;;;;;;18.30;48.97;103698.56;7283499;19;153843;-49
2021/12/18 12:08:59;;;;;;;;;;;;;;;18.32;48.93;103696.38;7282037;19;151891;-50
2021/12/18 12:11:27;;;;;;;;;;;;;;;18.28;49.27;103683.91;7283177;19;152181;-50
2021/12/18 12:13:57;;;;;;;;;;;;;;;18.28;49.29;103684.78;7281285;19;153796;-50
2021/12/18 12:16:27;;;;;;;;;;;;;;;18.27;48.86;103691.47;7284405;19;152119;-51
2021/12/18 12:18:58;;;;;;;;;;;;;;;18.27;49.20;103685.00;7291049;19;151762;-49
2021/12/18 12:21:27;;;;;;;;;;;;;;;18.25;49.28;103676.00;7282580;19;152041;-50
2021/12/18 12:23:57;;;;;;;;;;;;;;;18.26;48.80;103677.72;7283623;19;154656;-49
2021/12/18 12:26:25;;;;;;;;;;;;;;;18.26;48.93;103678.53;7281417;19;153968;-50
2021/12/18 12:28:52;;;;;;;;;;;;;;;18.27;49.21;103673.81;7285645;19;152374;-51
2021/12/18 12:31:19;;;;;;;;;;;;;;;18.25;49.25;103665.66;7281929;19;153281;-51
2021/12/18 12:33:49;;;;;;;;;;;;;;;18.36;49.36;103669.66;7283826;19;153333;-50
2021/12/18 12:36:19;;;;;;;;;;;;;;;18.43;49.21;103671.31;7281071;19;151975;-50
2021/12/18 12:38:49;;;;;;;;;;;;;;;18.46;49.64;103670.00;7284388;19;153627;-51
2021/12/18 12:41:21;;;;;;;;;;;;;;;18.52;49.51;103669.09;7290723;19;154631;-52
2021/12/18 12:43:50;;;;;;;;;;;;;;;18.57;49.76;103666.50;7284582;19;152693;-51
2021/12/18 12:46:18;;;;;;;;;;;;;;;18.63;49.55;103662.75;7281067;19;153833;-50
2021/12/18 12:48:48;;;;;;;;;;;;;;;18.70;49.99;103669.19;7281744;19;151867;-51
2021/12/18 12:51:15;;;;;;;;;;;;;;;18.76;49.72;103671.03;7281139;19;153009;-52
2021/12/18 12:53:45;;;;;;;;;;;;;;;18.81;49.69;103671.22;7281408;19;154107;-51
2021/12/18 12:56:13;;;;;;;;;;;;;;;18.89;49.50;103670.06;7284011;19;151769;-51
2021/12/18 12:58:40;;;;;;;;;;;;;;;18.96;49.31;103665.25;7282161;19;153203;-52
2021/12/18 13:01:08;;;;;;;;;;;;;;;19.02;49.40;103667.13;7281570;19;153313;-52
2021/12/18 13:03:38;;;;;;;;;;;;;;;19.09;49.20;103662.31;7287874;19;152144;-51
2021/12/18 13:06:07;;;;;;;;;;;;;;;19.16;49.03;103651.03;7280416;19;152647;-51
2021/12/18 13:08:36;;;;;;;;;;;;;;;19.24;48.73;103656.31;7282507;19;152047;-52
2021/12/18 13:11:03;;;;;;;;;;;;;;;19.32;48.75;103658.81;7279906;19;152727;-51
2021/12/18 13:13:32;;;;;;;;;;;;;;;19.38;48.45;103650.31;7280187;19;153906;-51
2021/12/18 13:16:00;;;;;;;;;;;;;;;19.45;48.73;103648.31;7281049;19;151732;-51
2021/12/18 13:18:30;;;;;;;;;;;;;;;19.52;48.21;103648.25;7283302;19;151804;-51
2021/12/18 13:20:59;;;;;;;;;;;;;;;19.59;48.02;103642.53;7279797;19;153003;-51
2021/12/18 13:23:29;;;;;;;;;;;;;;;19.66;48.30;103637.69;7281042;19;151777;-51
2021/12/18 13:25:56;;;;;;;;;;;;;;;19.72;48.11;103643.19;7286054;19;152584;-52
2021/12/18 13:28:23;;;;;;;;;;;;;;;19.79;48.00;103640.31;7282670;19;153032;-50